createdAt,value
2018-07-03T00:02:25.028Z,101174.59
2018-07-03T00:04:52.517Z,101176.02
2018-07-03T00:07:20.072Z,101177.59
2018-07-03T00:09:47.709Z,101177.62
2018-07-03T00:12:15.384Z,101178.33
2018-07-03T00:14:42.961Z,101171.07
2018-07-03T00:17:15.903Z,101171.34
2018-07-03T00:19:44.720Z,101174.73
2018-07-03T00:22:12.189Z,101181.08
2018-07-03T00:24:39.845Z,101179.55
2018-07-03T00:27:07.566Z,101180.88
2018-07-03T00:29:35.083Z,101183.17
2018-07-03T00:32:02.243Z,101181.25
2018-07-03T00:34:29.020Z,101179.19
2018-07-03T00:36:56.460Z,101169.91
2018-07-03T00:39:23.137Z,101177.00
2018-07-03T00:41:51.081Z,101173.13
2018-07-03T00:44:17.741Z,101174.83
2018-07-03T00:46:44.389Z,101174.83
2018-07-03T00:49:11.053Z,101178.11
2018-07-03T00:51:37.708Z,101174.97
2018-07-03T00:54:04.372Z,101174.00
2018-07-03T00:56:31.474Z,101177.97
2018-07-03T00:58:58.127Z,101174.34
2018-07-03T01:01:24.757Z,101170.23
2018-07-03T01:03:51.391Z,101178.05
2018-07-03T01:06:18.016Z,101174.83
2018-07-03T01:08:44.776Z,101176.55
2018-07-03T01:11:11.413Z,101175.67
2018-07-03T01:13:38.058Z,101175.95
2018-07-03T01:16:04.692Z,101180.03
2018-07-03T01:18:32.361Z,101172.00
2018-07-03T01:21:01.084Z,101178.98
2018-07-03T01:23:27.761Z,101173.32
2018-07-03T01:25:55.205Z,101175.48
2018-07-03T01:28:21.881Z,101176.22
2018-07-03T01:30:48.535Z,101174.66
2018-07-03T01:33:15.180Z,101174.66
2018-07-03T01:35:41.837Z,101174.78
2018-07-03T01:38:08.492Z,101171.75
2018-07-03T01:40:35.180Z,101172.11
2018-07-03T01:43:02.968Z,101172.63
2018-07-03T01:45:31.036Z,101175.73
2018-07-03T01:47:57.681Z,101176.46
2018-07-03T01:50:24.356Z,101176.81
2018-07-03T01:52:51.212Z,101171.78
2018-07-03T01:55:17.888Z,101169.13
2018-07-03T01:57:45.425Z,101181.88
2018-07-03T02:00:12.095Z,101176.81
2018-07-03T02:02:38.752Z,101170.94
2018-07-03T02:05:05.425Z,101171.43
2018-07-03T02:07:32.094Z,101173.22
2018-07-03T02:09:59.862Z,101175.11
2018-07-03T02:12:26.493Z,101174.16
2018-07-03T02:14:53.181Z,101171.30
2018-07-03T02:17:19.820Z,101173.56
2018-07-03T02:19:46.482Z,101170.80
2018-07-03T02:22:13.264Z,101169.13
2018-07-03T02:24:39.924Z,101166.10
2018-07-03T02:27:06.701Z,101164.88
2018-07-03T02:29:33.344Z,101165.88
2018-07-03T02:32:01.392Z,101154.44
2018-07-03T02:34:28.235Z,101157.31
2018-07-03T02:36:55.069Z,101157.58
2018-07-03T02:39:21.922Z,101155.87
2018-07-03T02:41:48.765Z,101163.23
2018-07-03T02:44:15.608Z,101160.55
2018-07-03T02:46:42.513Z,101158.98
2018-07-03T02:49:09.365Z,101152.49
2018-07-03T02:51:36.249Z,101157.20
2018-07-03T02:54:03.093Z,101160.55
2018-07-03T02:56:31.622Z,101155.66
2018-07-03T02:58:58.464Z,101159.77
2018-07-03T03:01:25.319Z,101164.56
2018-07-03T03:03:52.143Z,101162.16
2018-07-03T03:06:18.973Z,101155.39
2018-07-03T03:08:45.814Z,101158.06
2018-07-03T03:11:12.641Z,101162.75
2018-07-03T03:13:39.529Z,101167.08
2018-07-03T03:16:06.365Z,101163.09
2018-07-03T03:18:33.193Z,101164.31
2018-07-03T03:21:01.649Z,101161.42
2018-07-03T03:23:28.480Z,101162.28
2018-07-03T03:25:55.399Z,101160.23
2018-07-03T03:28:22.271Z,101162.16
2018-07-03T03:30:49.138Z,101156.95
2018-07-03T03:33:15.972Z,101161.91
2018-07-03T03:35:42.956Z,101155.17
2018-07-03T03:38:09.798Z,101155.03
2018-07-03T03:40:36.645Z,101156.36
2018-07-03T03:43:03.540Z,101160.13
2018-07-03T03:45:32.168Z,101165.39
2018-07-03T03:48:00.236Z,101170.38
2018-07-03T03:50:27.065Z,101170.86
2018-07-03T03:52:53.913Z,101169.37
2018-07-03T03:55:20.741Z,101165.53
2018-07-03T03:57:47.579Z,101166.97
2018-07-03T04:00:14.410Z,101162.63
2018-07-03T04:02:41.241Z,101164.07
2018-07-03T04:05:08.162Z,101164.31
2018-07-03T04:07:35.118Z,101156.85
2018-07-03T04:10:02.699Z,101161.39
2018-07-03T04:12:30.749Z,101158.77
2018-07-03T04:14:57.648Z,101163.09
2018-07-03T04:17:24.477Z,101161.80
2018-07-03T04:19:51.325Z,101159.61
2018-07-03T04:22:18.304Z,101159.66
2018-07-03T04:24:44.957Z,101166.51
2018-07-03T04:27:11.613Z,101163.23
2018-07-03T04:29:38.484Z,101161.29
2018-07-03T04:32:05.132Z,101157.52
2018-07-03T04:34:32.848Z,101159.50
2018-07-03T04:37:01.329Z,101159.50
2018-07-03T04:39:27.977Z,101168.91
2018-07-03T04:41:54.649Z,101173.59
2018-07-03T04:44:21.290Z,101173.59
2018-07-03T04:46:48.141Z,101177.78
2018-07-03T04:49:14.828Z,101175.52
2018-07-03T04:51:41.699Z,101169.23
2018-07-03T04:54:08.358Z,101176.36
2018-07-03T04:56:35.017Z,101165.37
2018-07-03T04:59:02.728Z,101169.24
2018-07-03T05:01:29.973Z,101172.08
2018-07-03T05:03:56.620Z,101174.66
2018-07-03T05:06:23.265Z,101177.17
2018-07-03T05:08:49.929Z,101176.92
2018-07-03T05:11:16.696Z,101177.66
2018-07-03T05:13:43.335Z,101183.06
2018-07-03T05:16:09.989Z,101180.11
2018-07-03T05:18:36.657Z,101181.25
2018-07-03T05:21:03.316Z,101184.71
2018-07-03T05:23:32.689Z,101189.04
2018-07-03T05:26:01.379Z,101193.58
2018-07-03T05:28:29.231Z,101188.90
2018-07-03T05:30:55.864Z,101194.65
2018-07-03T05:33:22.506Z,101194.51
2018-07-03T05:35:49.145Z,101194.59
2018-07-03T05:38:15.789Z,101193.48
2018-07-03T05:40:42.436Z,101194.41
2018-07-03T05:43:09.176Z,101194.45
2018-07-03T05:45:35.834Z,101193.08
2018-07-03T05:48:02.556Z,101190.92
2018-07-03T05:50:29.865Z,101193.08
2018-07-03T05:52:56.516Z,101200.70
2018-07-03T05:55:23.165Z,101198.73
2018-07-03T05:57:49.812Z,101200.45
2018-07-03T06:00:16.480Z,101200.70
2018-07-03T06:02:43.134Z,101203.66
2018-07-03T06:05:09.781Z,101209.02
2018-07-03T06:07:36.417Z,101208.52
2018-07-03T06:10:03.560Z,101209.84
2018-07-03T06:12:31.852Z,101209.36
2018-07-03T06:14:58.553Z,101209.25
2018-07-03T06:17:25.194Z,101210.23
2018-07-03T06:19:51.853Z,101206.59
2018-07-03T06:22:18.505Z,101209.95
2018-07-03T06:24:45.200Z,101208.03
2018-07-03T06:27:11.859Z,101208.52
2018-07-03T06:29:38.522Z,101209.50
2018-07-03T06:32:05.192Z,101212.02
2018-07-03T06:34:32.933Z,101208.41
2018-07-03T06:37:00.857Z,101212.25
2018-07-03T06:39:27.528Z,101218.44
2018-07-03T06:41:54.162Z,101215.30
2018-07-03T06:44:20.820Z,101211.06
2018-07-03T06:46:47.460Z,101212.16
2018-07-03T06:49:14.134Z,101208.27
2018-07-03T06:51:40.857Z,101205.27
2018-07-03T06:54:07.667Z,101215.05
2018-07-03T06:56:34.316Z,101208.77
2018-07-03T06:59:01.991Z,101209.02
2018-07-03T07:01:28.664Z,101206.70
2018-07-03T07:03:55.328Z,101203.59
2018-07-03T07:06:21.985Z,101204.54
2018-07-03T07:08:48.743Z,101205.76
2018-07-03T07:11:15.446Z,101202.27
2018-07-03T07:13:42.213Z,101205.86
2018-07-03T07:16:08.864Z,101209.99
2018-07-03T07:18:35.557Z,101200.31
2018-07-03T07:21:02.205Z,101199.13
2018-07-03T07:23:29.479Z,101208.03
2018-07-03T07:25:56.136Z,101197.80
2018-07-03T07:28:22.824Z,101194.16
2018-07-03T07:30:49.482Z,101197.41
2018-07-03T07:33:16.117Z,101194.36
2018-07-03T07:35:42.800Z,101202.33
2018-07-03T07:38:09.475Z,101199.61
2018-07-03T07:40:36.146Z,101198.05
2018-07-03T07:43:03.693Z,101201.63
2018-07-03T07:45:31.608Z,101200.45
2018-07-03T07:47:58.275Z,101198.39
2018-07-03T07:50:24.945Z,101201.63
2018-07-03T07:52:51.601Z,101200.07
2018-07-03T07:55:19.096Z,101199.61
2018-07-03T07:57:45.807Z,101202.96
2018-07-03T08:00:13.313Z,101198.84
2018-07-03T08:02:40.010Z,101198.14
2018-07-03T08:05:06.761Z,101207.09
2018-07-03T08:07:33.409Z,101200.94
2018-07-03T08:10:02.182Z,101195.63
2018-07-03T08:12:31.649Z,101198.28
2018-07-03T08:14:58.285Z,101193.72
2018-07-03T08:17:24.925Z,101201.93
2018-07-03T08:19:51.573Z,101198.88
2018-07-03T08:22:18.199Z,101194.41
2018-07-03T08:24:44.837Z,101192.50
2018-07-03T08:27:11.485Z,101204.19
2018-07-03T08:29:38.165Z,101191.55
2018-07-03T08:32:04.997Z,101195.39
2018-07-03T08:34:33.076Z,101193.18
2018-07-03T08:37:01.606Z,101189.59
2018-07-03T08:39:28.277Z,101187.42
2018-07-03T08:41:54.924Z,101180.45
2018-07-03T08:44:21.600Z,101186.63
2018-07-03T08:46:48.279Z,101179.86
2018-07-03T08:49:14.934Z,101189.59
2018-07-03T08:51:41.645Z,101191.55
2018-07-03T08:54:08.269Z,101187.08
2018-07-03T08:56:34.909Z,101182.26
2018-07-03T08:59:02.064Z,101175.83
2018-07-03T09:01:28.742Z,101178.13
2018-07-03T09:03:55.380Z,101176.11
2018-07-03T09:06:22.038Z,101171.05
2018-07-03T09:08:48.688Z,101173.81
2018-07-03T09:11:15.341Z,101173.31
2018-07-03T09:13:42.312Z,101168.89
2018-07-03T09:16:08.972Z,101169.83
2018-07-03T09:18:35.604Z,101160.64
2018-07-03T09:21:02.258Z,101164.77
2018-07-03T09:23:29.944Z,101160.95
2018-07-03T09:25:56.576Z,101158.97
2018-07-03T09:28:23.277Z,101163.30
2018-07-03T09:30:49.924Z,101164.91
2018-07-03T09:33:16.604Z,101157.44
2018-07-03T09:35:43.250Z,101158.04
2018-07-03T09:38:09.894Z,101160.93
2018-07-03T09:40:36.885Z,101151.20
2018-07-03T09:43:03.537Z,101158.53
2018-07-03T09:45:31.271Z,101158.53
2018-07-03T09:47:57.920Z,101161.53
2018-07-03T09:50:24.971Z,101167.42
2018-07-03T09:52:51.624Z,101163.09
2018-07-03T09:55:18.298Z,101152.38
2018-07-03T09:57:44.954Z,101154.31
2018-07-03T10:00:11.637Z,101155.23
2018-07-03T10:02:38.280Z,101157.06
2018-07-03T10:05:04.941Z,101146.09
2018-07-03T10:07:32.104Z,101154.31
2018-07-03T10:09:58.753Z,101156.51
2018-07-03T10:12:25.397Z,101145.61
2018-07-03T10:14:52.069Z,101142.25
2018-07-03T10:17:18.704Z,101143.78
2018-07-03T10:19:45.384Z,101152.03
2018-07-03T10:22:12.051Z,101152.97
2018-07-03T10:24:38.749Z,101151.64
2018-07-03T10:27:05.405Z,101143.68
2018-07-03T10:29:32.050Z,101144.42
2018-07-03T10:31:58.689Z,101137.98
2018-07-03T10:34:25.344Z,101138.72
2018-07-03T10:36:51.994Z,101132.57
2018-07-03T10:39:18.648Z,101135.81
2018-07-03T10:41:45.288Z,101131.59
2018-07-03T10:44:11.936Z,101128.70
2018-07-03T10:46:38.589Z,101130.90
2018-07-03T10:49:05.246Z,101131.64
2018-07-03T10:51:31.912Z,101131.98
2018-07-03T10:53:58.573Z,101134.05
2018-07-03T10:56:25.205Z,101133.02
2018-07-03T10:58:51.955Z,101131.05
2018-07-03T11:01:18.604Z,101135.63
2018-07-03T11:03:45.251Z,101132.08
2018-07-03T11:06:11.901Z,101134.16
2018-07-03T11:08:38.537Z,101125.05
2018-07-03T11:11:05.732Z,101126.44
2018-07-03T11:13:32.845Z,101135.03
2018-07-03T11:16:01.190Z,101129.59
2018-07-03T11:18:28.009Z,101125.51
2018-07-03T11:20:54.656Z,101129.73
2018-07-03T11:23:21.344Z,101125.80
2018-07-03T11:25:47.987Z,101124.08
2018-07-03T11:28:14.628Z,101122.00
2018-07-03T11:33:07.450Z,101116.36
2018-07-03T11:38:01.338Z,101115.08
2018-07-03T11:40:27.999Z,101115.13
2018-07-03T11:42:54.712Z,101104.17
2018-07-03T11:45:21.357Z,101101.17
2018-07-03T11:47:48.102Z,101105.84
2018-07-03T11:50:14.780Z,101103.33
2018-07-03T11:52:42.388Z,101096.46
2018-07-03T11:55:09.036Z,101099.11
2018-07-03T11:57:36.629Z,101100.88
2018-07-03T12:00:03.981Z,101102.50
2018-07-03T12:04:58.532Z,101099.11
2018-07-03T12:07:25.192Z,101095.08
2018-07-03T12:09:51.829Z,101092.67
2018-07-03T12:12:18.487Z,101094.88
2018-07-03T12:14:45.169Z,101094.64
2018-07-03T12:17:11.840Z,101085.25
2018-07-03T12:19:38.529Z,101082.59
2018-07-03T12:22:05.168Z,101098.03
2018-07-03T12:26:57.964Z,101083.29
2018-07-03T12:29:24.629Z,101079.45
2018-07-03T12:31:51.275Z,101081.77
2018-07-03T12:34:17.941Z,101085.25
2018-07-03T12:36:45.475Z,101078.03
2018-07-03T12:39:12.440Z,101071.98
2018-07-03T12:41:39.177Z,101073.06
2018-07-03T12:44:07.158Z,101075.95
2018-07-03T12:46:33.805Z,101074.00
2018-07-03T12:49:00.486Z,101070.66
2018-07-03T12:51:27.148Z,101077.75
2018-07-03T12:53:53.809Z,101080.89
2018-07-03T12:56:20.472Z,101074.54
2018-07-03T12:58:47.126Z,101086.28
2018-07-03T13:01:13.790Z,101071.69
2018-07-03T13:03:40.453Z,101068.59
2018-07-03T13:06:07.982Z,101073.70
2018-07-03T13:08:34.672Z,101061.27
2018-07-03T13:11:01.320Z,101069.09
2018-07-03T13:13:27.984Z,101069.14
2018-07-03T13:15:54.721Z,101068.25
2018-07-03T13:18:22.518Z,101059.95
2018-07-03T13:20:50.206Z,101054.75
2018-07-03T13:23:16.874Z,101053.86
2018-07-03T13:25:43.539Z,101060.30
2018-07-03T13:28:10.347Z,101060.87
2018-07-03T13:30:37.840Z,101055.08
2018-07-03T13:33:04.804Z,101051.98
2018-07-03T13:35:31.965Z,101042.20
2018-07-03T13:37:58.649Z,101042.32
2018-07-03T13:40:25.404Z,101054.75
2018-07-03T13:42:52.055Z,101050.26
2018-07-03T13:45:18.770Z,101046.48
2018-07-03T13:47:45.450Z,101051.35
2018-07-03T13:50:12.132Z,101044.37
2018-07-03T13:52:38.813Z,101039.91
2018-07-03T13:55:05.560Z,101047.37
2018-07-03T13:57:32.588Z,101046.28
2018-07-03T13:59:59.929Z,101044.11
2018-07-03T14:02:26.574Z,101035.69
2018-07-03T14:04:53.244Z,101034.50
2018-07-03T14:07:19.904Z,101033.76
2018-07-03T14:09:46.593Z,101034.59
2018-07-03T14:12:13.248Z,101030.03
2018-07-03T14:14:39.896Z,101031.45
2018-07-03T14:17:07.416Z,101033.31
2018-07-03T14:19:34.816Z,101029.20
2018-07-03T14:22:01.570Z,101027.81
2018-07-03T14:24:28.194Z,101032.92
2018-07-03T14:26:54.858Z,101033.03
2018-07-03T14:29:21.518Z,101029.63
2018-07-03T14:31:48.217Z,101027.96
2018-07-03T14:34:14.869Z,101028.30
2018-07-03T14:36:41.549Z,101031.88
2018-07-03T14:39:08.914Z,101026.00
2018-07-03T14:41:36.017Z,101029.43
2018-07-03T14:44:05.012Z,101018.67
2018-07-03T14:46:33.469Z,101018.18
2018-07-03T14:49:01.726Z,101019.85
2018-07-03T14:53:56.235Z,101022.66
2018-07-03T14:56:23.002Z,101023.44
2018-07-03T14:58:50.955Z,101024.96
2018-07-03T15:01:18.468Z,101021.47
2018-07-03T15:03:45.191Z,101029.52
2018-07-03T15:06:11.842Z,101032.52
2018-07-03T15:08:38.501Z,101031.53
2018-07-03T15:11:05.337Z,101022.30
2018-07-03T15:13:31.977Z,101031.10
2018-07-03T15:15:58.739Z,101029.28
2018-07-03T15:18:30.030Z,101023.98
2018-07-03T15:20:56.722Z,101024.47
2018-07-03T15:23:23.369Z,101023.74
2018-07-03T15:25:50.123Z,101018.33
2018-07-03T15:28:16.869Z,101022.07
2018-07-03T15:33:11.378Z,101015.53
2018-07-03T15:35:39.372Z,101021.96
2018-07-03T15:38:07.113Z,101011.89
2018-07-03T15:40:34.912Z,101008.80
2018-07-03T15:43:01.622Z,101015.44
2018-07-03T15:45:28.297Z,101011.80
2018-07-03T15:47:55.020Z,101006.64
2018-07-03T15:50:21.700Z,101010.88
2018-07-03T15:52:48.372Z,101009.94
2018-07-03T15:55:15.071Z,101004.13
2018-07-03T15:57:41.780Z,100998.34
2018-07-03T16:00:10.342Z,101000.01
2018-07-03T16:02:37.032Z,100994.09
2018-07-03T16:05:12.965Z,100998.36
2018-07-03T16:07:46.945Z,100999.94
2018-07-03T16:10:13.614Z,100988.93
2018-07-03T16:12:40.381Z,100986.89
2018-07-03T16:15:07.348Z,100990.87
2018-07-03T16:17:36.006Z,100988.56
2018-07-03T16:20:10.088Z,100992.54
2018-07-03T16:22:36.854Z,100987.45
2018-07-03T16:25:05.064Z,100985.22
2018-07-03T16:27:31.660Z,100982.56
2018-07-03T16:29:58.357Z,100979.16
2018-07-03T16:32:25.022Z,100986.89
2018-07-03T16:34:51.671Z,100981.58
2018-07-03T16:37:18.368Z,100974.19
2018-07-03T16:39:45.028Z,100980.25
2018-07-03T16:42:11.672Z,100975.78
2018-07-03T16:44:38.321Z,100980.11
2018-07-03T16:47:04.988Z,100974.05
2018-07-03T16:49:31.986Z,100966.75
2018-07-03T16:51:58.672Z,100970.95
2018-07-03T16:54:25.317Z,100972.03
2018-07-03T16:56:52.219Z,100970.94
2018-07-03T16:59:18.900Z,100970.88
2018-07-03T17:01:45.569Z,100973.03
2018-07-03T17:04:13.057Z,100967.11
2018-07-03T17:06:39.736Z,100970.11
2018-07-03T17:09:07.381Z,100967.95
2018-07-03T17:11:35.403Z,100965.30
2018-07-03T17:14:03.512Z,100969.89
2018-07-03T17:16:31.218Z,100968.06
2018-07-03T17:19:03.468Z,100966.05
2018-07-03T17:21:30.138Z,100965.48
2018-07-03T17:23:56.802Z,100968.56
2018-07-03T17:26:23.495Z,100973.11
2018-07-03T17:28:50.209Z,100969.05
2018-07-03T17:31:16.884Z,100967.23
2018-07-03T17:33:43.625Z,100969.27
2018-07-03T17:36:10.974Z,100968.44
2018-07-03T17:38:37.638Z,100968.86
2018-07-03T17:41:09.940Z,100957.10
2018-07-03T17:44:09.945Z,100967.08
2018-07-03T17:46:47.915Z,100962.09
2018-07-03T17:49:14.598Z,100963.30
2018-07-03T17:51:41.297Z,100961.91
2018-07-03T17:54:07.961Z,100963.96
2018-07-03T17:56:34.766Z,100968.14
2018-07-03T17:59:01.491Z,100964.01
2018-07-03T18:01:28.317Z,100958.50
2018-07-03T18:03:54.990Z,100967.56
2018-07-03T18:06:21.756Z,100963.73
2018-07-03T18:08:48.947Z,100962.06
2018-07-03T18:11:15.649Z,100967.56
2018-07-03T18:13:42.445Z,100970.22
2018-07-03T18:16:09.148Z,100968.20
2018-07-03T18:18:35.813Z,100963.16
2018-07-03T18:21:03.139Z,100959.48
2018-07-03T18:23:29.706Z,100960.08
2018-07-03T18:25:56.419Z,100959.48
2018-07-03T18:28:23.078Z,100959.74
2018-07-03T18:30:49.856Z,100965.55
2018-07-03T18:33:16.512Z,100955.04
2018-07-03T18:35:43.238Z,100959.52
2018-07-03T18:38:10.117Z,100961.33
2018-07-03T18:40:36.874Z,100963.16
2018-07-03T18:43:04.777Z,100958.07
2018-07-03T18:45:31.550Z,100960.84
2018-07-03T18:47:58.282Z,100961.97
2018-07-03T18:50:25.220Z,100964.62
2018-07-03T18:52:51.998Z,100963.64
2018-07-03T18:55:18.779Z,100957.16
2018-07-03T18:57:45.649Z,100969.22
2018-07-03T19:00:12.553Z,100964.05
2018-07-03T19:02:39.576Z,100963.36
2018-07-03T19:05:07.637Z,100961.55
2018-07-03T19:07:35.505Z,100965.64
2018-07-03T19:10:03.870Z,100962.04
2018-07-03T19:12:31.982Z,100963.83
2018-07-03T19:14:58.969Z,100963.97
2018-07-03T19:17:26.010Z,100971.78
2018-07-03T19:19:52.964Z,100971.33
2018-07-03T19:22:19.935Z,100970.95
2018-07-03T19:24:46.891Z,100969.13
2018-07-03T19:27:13.857Z,100974.39
2018-07-03T19:29:40.831Z,100980.13
2018-07-03T19:32:07.825Z,100979.29
2018-07-03T19:34:34.787Z,100984.22
2018-07-03T19:37:01.668Z,100987.37
2018-07-03T19:39:30.524Z,100984.72
2018-07-03T19:41:57.491Z,100991.50
2018-07-03T19:44:24.411Z,100997.30
2018-07-03T19:46:51.388Z,100998.48
2018-07-03T19:49:18.287Z,100996.45
2018-07-03T19:51:45.244Z,100997.64
2018-07-03T19:54:12.249Z,100991.98
2018-07-03T19:56:39.256Z,100991.98
2018-07-03T19:59:06.116Z,100996.45
2018-07-03T20:01:33.522Z,100990.09
2018-07-03T20:04:01.121Z,100994.91
2018-07-03T20:06:28.069Z,100992.73
2018-07-03T20:08:55.157Z,100997.91
2018-07-03T20:11:22.052Z,100998.63
2018-07-03T20:13:48.982Z,101003.21
2018-07-03T20:16:15.898Z,101000.70
2018-07-03T20:18:42.954Z,101000.70
2018-07-03T20:21:09.933Z,101005.52
2018-07-03T20:23:36.811Z,101001.69
2018-07-03T20:26:04.722Z,101004.34
2018-07-03T20:28:31.737Z,101001.54
2018-07-03T20:30:58.723Z,101005.52
2018-07-03T20:33:25.523Z,101003.36
2018-07-03T20:36:06.206Z,101006.01
2018-07-03T20:38:41.226Z,101003.84
2018-07-03T20:41:09.247Z,101004.69
2018-07-03T20:43:46.140Z,101003.50
2018-07-03T20:46:12.826Z,100997.96
2018-07-03T20:48:39.798Z,100992.31
2018-07-03T20:51:16.044Z,100997.33
2018-07-03T20:53:42.765Z,100994.81
2018-07-03T20:56:09.440Z,100995.45
2018-07-03T20:58:36.294Z,100994.47
2018-07-03T21:01:04.062Z,100990.00
2018-07-03T21:03:31.649Z,100990.98
2018-07-03T21:06:04.148Z,100990.00
2018-07-03T21:08:30.782Z,100996.29
2018-07-03T21:10:58.233Z,101000.27
2018-07-03T21:13:25.108Z,100998.11
2018-07-03T21:15:51.769Z,100998.94
2018-07-03T21:18:18.412Z,100999.92
2018-07-03T21:20:45.070Z,100999.55
2018-07-03T21:23:11.741Z,101004.02
2018-07-03T21:25:38.669Z,101002.98
2018-07-03T21:30:31.554Z,100997.47
2018-07-03T21:32:58.515Z,100999.69
2018-07-03T21:35:30.861Z,100999.69
2018-07-03T21:37:57.512Z,100997.09
2018-07-03T21:40:24.409Z,100996.69
2018-07-03T21:42:51.185Z,101002.69
2018-07-03T21:45:17.863Z,100999.44
2018-07-03T21:47:44.590Z,101002.00
2018-07-03T21:52:37.437Z,101009.97
2018-07-03T21:55:05.411Z,101006.97
2018-07-03T21:57:32.138Z,101002.98
2018-07-03T21:59:59.028Z,101010.05
2018-07-03T22:02:25.682Z,101008.55
2018-07-03T22:04:52.358Z,101003.67
2018-07-03T22:07:19.025Z,101003.09
2018-07-03T22:09:45.725Z,101006.59
2018-07-03T22:12:12.394Z,101006.82
2018-07-03T22:14:40.605Z,101007.08
2018-07-03T22:17:07.805Z,101008.41
2018-07-03T22:19:34.497Z,101007.42
2018-07-03T22:22:01.177Z,101010.97
2018-07-03T22:24:27.841Z,101010.97
2018-07-03T22:26:54.497Z,101013.42
2018-07-03T22:29:21.157Z,101018.38
2018-07-03T22:31:47.806Z,101015.78
2018-07-03T22:34:14.468Z,101017.75
2018-07-03T22:36:41.134Z,101013.42
2018-07-03T22:39:08.707Z,101012.44
2018-07-03T22:41:35.301Z,101011.20
2018-07-03T22:44:01.955Z,101003.84
2018-07-03T22:46:28.706Z,101006.59
2018-07-03T22:48:55.373Z,101005.46
2018-07-03T22:51:22.078Z,101003.39
2018-07-03T22:53:48.746Z,101012.09
2018-07-03T22:56:15.550Z,101005.95
2018-07-03T22:58:42.434Z,101007.13
2018-07-03T23:01:09.118Z,101004.34
2018-07-03T23:03:36.829Z,101003.39
2018-07-03T23:06:04.444Z,101011.11
2018-07-03T23:08:33.483Z,101008.69
2018-07-03T23:11:01.101Z,101008.13
2018-07-03T23:13:27.752Z,101001.36
2018-07-03T23:15:54.436Z,101009.46
2018-07-03T23:18:21.121Z,101008.73
2018-07-03T23:20:47.826Z,101011.53
2018-07-03T23:23:14.484Z,101016.35
2018-07-03T23:25:41.139Z,101013.20
2018-07-03T23:28:07.812Z,101012.86
2018-07-03T23:30:34.491Z,101017.28
2018-07-03T23:33:01.215Z,101010.41
2018-07-03T23:35:27.866Z,101016.20
2018-07-03T23:37:54.512Z,101018.28
2018-07-03T23:40:21.164Z,101011.45
2018-07-03T23:42:47.830Z,101020.33
2018-07-03T23:45:14.480Z,101020.23
2018-07-03T23:47:46.861Z,101021.31
2018-07-03T23:50:19.125Z,101029.08
2018-07-03T23:52:51.578Z,101021.47
2018-07-03T23:55:23.864Z,101027.92
2018-07-03T23:57:56.409Z,101024.03
